Airport View

Enter AWOS ICAO identifier for current METAR.

ex. KFNL

KVPC 191853Z AUTO VRB05KT 10SM CLR 08/M07 A3017 RMK AO2 SLP213 T00781072

19 Jan 2020 19:34

Frequency: 120.525

Phone: 770-606-0375

Other Area AWOS: KPUJ - KRYY - KCZL - KRMG

TAF KRYY 191730Z 1918/2018 32014G22KT P6SM SKC FM200400 32010G18KT P6SM SKC